Time;durP1;ratioP1;P1;durP2;ratioP2;P2;SDS_P1;SDS_P2;PMS_P1;PMS_P2;Temp;Humidity;BMP_temperature;BMP_pressure;BME280_temperature;BME280_humidity;BME280_pressure;Samples;Min_cycle;Max_cycle;Signal;HPM_P1;HPM_P2
2022/01/11 00:00:59;;;;;;;6.63;5.50;;;23.40;34.60;;;;;;5010467;28;20075;-44
2022/01/11 00:03:25;;;;;;;6.65;5.43;;;23.40;34.60;;;;;;5016489;28;20057;-44
2022/01/11 00:06:19;;;;;;;7.10;5.40;;;23.40;34.60;;;;;;5004573;28;20030;-45
2022/01/11 00:08:45;;;;;;;7.03;5.80;;;23.30;34.60;;;;;;5003728;28;20034;-44
2022/01/11 00:11:11;;;;;;;6.78;5.72;;;23.40;34.60;;;;;;5004027;28;20033;-44
2022/01/11 00:13:39;;;;;;;7.35;5.88;;;23.40;34.60;;;;;;5004201;28;20101;-44
2022/01/11 00:16:07;;;;;;;6.55;5.15;;;23.30;34.70;;;;;;5003061;28;20035;-43
2022/01/11 00:18:33;;;;;;;7.60;5.88;;;23.30;34.70;;;;;;5004247;28;20529;-44
2022/01/11 00:21:00;;;;;;;6.75;5.45;;;23.30;34.60;;;;;;5004080;28;20030;-45
2022/01/11 00:25:55;;;;;;;7.20;5.63;;;23.30;34.70;;;;;;5004680;28;20553;-43
2022/01/11 00:28:22;;;;;;;6.68;5.22;;;23.30;34.70;;;;;;5004010;28;20030;-44
2022/01/11 00:30:50;;;;;;;6.60;5.35;;;23.30;34.70;;;;;;5004393;28;20774;-44
2022/01/11 00:33:21;;;;;;;7.40;6.25;;;23.30;34.70;;;;;;5009170;28;20032;-44
2022/01/11 00:36:00;;;;;;;7.53;6.13;;;23.20;34.60;;;;;;5012265;28;20034;-44
2022/01/11 00:38:35;;;;;;;6.78;5.57;;;23.20;34.60;;;;;;5004053;28;20124;-44
2022/01/11 00:41:05;;;;;;;9.15;6.57;;;23.20;34.70;;;;;;5003937;28;20038;-44
2022/01/11 00:43:32;;;;;;;7.50;6.15;;;23.20;34.60;;;;;;5003817;28;20496;-43
2022/01/11 00:45:59;;;;;;;8.55;6.85;;;23.20;34.60;;;;;;5004326;28;20030;-44
2022/01/11 00:48:27;;;;;;;8.45;6.88;;;23.20;34.70;;;;;;5009853;28;20021;-44
2022/01/11 00:50:54;;;;;;;8.25;6.72;;;23.20;34.70;;;;;;5021711;28;20029;-44
2022/01/11 00:53:20;;;;;;;7.97;6.70;;;23.10;34.70;;;;;;5023540;28;20034;-44
2022/01/11 00:55:47;;;;;;;7.07;5.70;;;23.10;34.80;;;;;;5014657;28;20028;-43
2022/01/11 00:58:15;;;;;;;7.95;6.40;;;23.20;34.80;;;;;;5003830;28;20740;-44
2022/01/11 01:00:41;;;;;;;6.97;6.07;;;23.10;34.70;;;;;;4967349;28;1141167;-45
2022/01/11 01:03:07;;;;;;;8.05;6.32;;;23.10;34.70;;;;;;5024029;28;20025;-44
2022/01/11 01:05:33;;;;;;;7.40;6.13;;;23.10;34.60;;;;;;5024483;28;20032;-44
2022/01/11 01:08:00;;;;;;;6.53;5.43;;;23.10;34.70;;;;;;5024146;28;20030;-44
2022/01/11 01:10:29;;;;;;;6.82;5.57;;;23.10;34.70;;;;;;5024595;28;20036;-44
2022/01/11 01:12:57;;;;;;;9.07;6.43;;;23.10;34.70;;;;;;5023907;28;20445;-44
2022/01/11 01:15:25;;;;;;;7.50;5.82;;;23.10;34.60;;;;;;5023553;28;20087;-44
2022/01/11 01:17:51;;;;;;;7.78;6.22;;;23.10;34.60;;;;;;5023394;28;20041;-43
2022/01/11 01:20:18;;;;;;;8.05;6.63;;;23.00;34.50;;;;;;5004528;28;20073;-44
2022/01/11 01:22:44;;;;;;;7.97;6.72;;;23.10;34.60;;;;;;5004443;28;20437;-44
2022/01/11 01:25:11;;;;;;;7.78;6.03;;;23.10;34.60;;;;;;5003056;28;20022;-45
2022/01/11 01:27:37;;;;;;;7.30;6.35;;;23.10;34.60;;;;;;5004080;28;20082;-44
2022/01/11 01:30:05;;;;;;;7.78;6.45;;;23.00;34.50;;;;;;5003343;28;20045;-44
2022/01/11 01:32:31;;;;;;;8.27;6.95;;;23.00;34.50;;;;;;5004136;28;20026;-44
2022/01/11 01:35:01;;;;;;;7.68;6.75;;;23.00;34.50;;;;;;5003973;28;20040;-44
2022/01/11 01:37:27;;;;;;;8.35;6.38;;;23.00;35.10;;;;;;5004251;28;20113;-44
2022/01/11 01:39:53;;;;;;;8.05;6.43;;;23.00;34.50;;;;;;5004048;28;20105;-44
2022/01/11 01:42:26;;;;;;;8.80;6.80;;;23.00;34.50;;;;;;5004029;28;20084;-44
2022/01/11 01:44:52;;;;;;;7.57;6.20;;;23.00;34.50;;;;;;5004152;28;20050;-43
2022/01/11 01:47:18;;;;;;;8.25;6.93;;;23.00;34.40;;;;;;5004472;28;20026;-44
2022/01/11 01:49:44;;;;;;;7.28;6.45;;;23.00;34.50;;;;;;5004335;28;20441;-44
2022/01/11 01:52:10;;;;;;;8.45;6.40;;;23.00;34.50;;;;;;5003902;28;20029;-44
2022/01/11 01:54:36;;;;;;;8.02;6.63;;;23.00;34.50;;;;;;5004720;28;20033;-44
2022/01/11 01:57:03;;;;;;;7.75;6.32;;;23.00;34.40;;;;;;5003853;28;20562;-44
2022/01/11 01:59:29;;;;;;;8.48;7.03;;;22.90;34.50;;;;;;5004363;28;20105;-45
2022/01/11 02:01:55;;;;;;;8.18;6.78;;;22.90;34.40;;;;;;5004953;28;20053;-44
2022/01/11 02:04:21;;;;;;;8.30;6.68;;;23.00;34.40;;;;;;5007273;28;20056;-44
2022/01/11 02:06:47;;;;;;;8.38;6.85;;;22.90;34.40;;;;;;5007934;28;20030;-44
2022/01/11 02:09:15;;;;;;;8.13;6.65;;;22.90;34.50;;;;;;5008008;28;20022;-44
2022/01/11 02:11:41;;;;;;;7.80;6.50;;;22.90;34.40;;;;;;5007954;28;20036;-44
2022/01/11 02:14:08;;;;;;;8.25;6.70;;;22.90;34.40;;;;;;5007502;28;20037;-43
2022/01/11 02:16:34;;;;;;;8.73;7.30;;;22.90;34.40;;;;;;5023040;28;20443;-43
2022/01/11 02:19:00;;;;;;;8.05;6.85;;;22.90;34.50;;;;;;5027226;28;20101;-44
2022/01/11 02:21:26;;;;;;;7.90;6.53;;;22.90;34.50;;;;;;5027233;28;20592;-43
2022/01/11 02:23:52;;;;;;;7.68;6.25;;;22.90;34.50;;;;;;5008833;28;20021;-43
2022/01/11 02:26:18;;;;;;;7.32;6.15;;;22.90;34.40;;;;;;5011922;28;20049;-44
2022/01/11 02:28:45;;;;;;;8.30;7.07;;;22.90;34.40;;;;;;5007527;28;20053;-43
2022/01/11 02:31:14;;;;;;;8.23;6.80;;;22.80;34.40;;;;;;5007686;28;20106;-43
2022/01/11 02:33:45;;;;;;;8.50;7.10;;;22.80;34.40;;;;;;5013566;28;20685;-44
2022/01/11 02:36:22;;;;;;;7.82;6.32;;;22.80;34.40;;;;;;5027029;28;20022;-43
2022/01/11 02:38:50;;;;;;;8.43;7.35;;;22.80;34.50;;;;;;5027226;28;20060;-44
2022/01/11 02:41:16;;;;;;;7.70;6.57;;;22.80;34.50;;;;;;5026918;28;20028;-45
2022/01/11 02:43:46;;;;;;;8.20;6.85;;;22.80;34.60;;;;;;5026677;28;20032;-43
2022/01/11 02:46:14;;;;;;;8.88;6.93;;;22.80;34.60;;;;;;5027157;28;20113;-43
2022/01/11 02:48:40;;;;;;;9.00;6.85;;;22.80;34.60;;;;;;5026216;28;20057;-43
2022/01/11 02:51:06;;;;;;;7.88;6.45;;;22.80;34.60;;;;;;5026915;28;20485;-43
2022/01/11 02:53:37;;;;;;;8.38;6.82;;;22.80;34.50;;;;;;5025957;28;20042;-44
2022/01/11 02:56:03;;;;;;;8.43;7.20;;;22.80;34.50;;;;;;5014673;28;20026;-43
2022/01/11 02:58:29;;;;;;;8.48;7.10;;;22.80;34.50;;;;;;5006560;28;20443;-44
2022/01/11 03:00:55;;;;;;;7.57;6.20;;;22.80;34.50;;;;;;5011039;28;20100;-44
2022/01/11 03:03:25;;;;;;;8.63;6.90;;;22.70;34.50;;;;;;5024844;28;20033;-43
2022/01/11 03:05:56;;;;;;;7.85;6.80;;;22.80;34.50;;;;;;5025436;28;20033;-44
2022/01/11 03:08:24;;;;;;;8.30;6.87;;;22.70;34.50;;;;;;5025932;28;20129;-44
2022/01/11 03:10:52;;;;;;;7.47;6.10;;;22.70;34.50;;;;;;5025137;28;20079;-44
2022/01/11 03:13:19;;;;;;;7.78;6.88;;;22.70;34.50;;;;;;5024546;28;20219;-44
2022/01/11 03:15:46;;;;;;;7.85;6.90;;;22.70;34.50;;;;;;5025669;28;20091;-44
2022/01/11 03:18:13;;;;;;;7.45;6.22;;;22.70;34.40;;;;;;5025618;28;20037;-44
2022/01/11 03:20:40;;;;;;;7.65;6.47;;;22.70;34.40;;;;;;5025983;28;20053;-44
2022/01/11 03:23:06;;;;;;;8.23;6.72;;;22.70;34.50;;;;;;5025248;28;20033;-44
2022/01/11 03:25:33;;;;;;;8.07;6.38;;;22.60;34.40;;;;;;5017889;28;20038;-44
2022/01/11 03:27:59;;;;;;;8.05;7.07;;;22.60;34.30;;;;;;5004552;28;20022;-44
2022/01/11 03:30:24;;;;;;;7.70;5.97;;;22.70;34.50;;;;;;5006094;28;20053;-44
2022/01/11 03:32:50;;;;;;;7.90;6.80;;;22.60;34.40;;;;;;5005840;28;20553;-43
2022/01/11 03:35:16;;;;;;;8.30;6.15;;;22.60;34.40;;;;;;5023767;28;20033;-43
2022/01/11 03:37:43;;;;;;;7.35;6.40;;;22.60;34.40;;;;;;5025389;28;20041;-44
2022/01/11 03:40:13;;;;;;;8.88;6.85;;;22.60;34.40;;;;;;5025466;28;20030;-44
2022/01/11 03:42:38;;;;;;;7.93;6.15;;;22.60;34.40;;;;;;5025262;28;20026;-43
2022/01/11 03:45:06;;;;;;;7.50;5.90;;;22.60;34.50;;;;;;5025521;28;20325;-44
2022/01/11 03:47:32;;;;;;;8.35;6.60;;;22.60;34.40;;;;;;5025630;28;20029;-43
2022/01/11 03:49:58;;;;;;;9.15;7.28;;;22.60;34.40;;;;;;5025546;28;20554;-43
2022/01/11 03:52:24;;;;;;;7.95;6.35;;;22.60;34.50;;;;;;5025144;28;20033;-44
2022/01/11 03:57:24;;;;;;;8.20;7.15;;;22.60;34.40;;;;;;5005645;28;20032;-44
2022/01/11 03:59:50;;;;;;;7.78;6.80;;;22.50;34.70;;;;;;5005804;28;20038;-44
2022/01/11 04:02:16;;;;;;;7.55;6.40;;;22.50;34.60;;;;;;5005612;28;20277;-44
2022/01/11 04:04:41;;;;;;;8.18;6.60;;;22.50;34.60;;;;;;5018154;28;20077;-43
2022/01/11 04:07:08;;;;;;;8.50;7.00;;;22.50;34.70;;;;;;5025103;28;20139;-44
2022/01/11 04:09:34;;;;;;;8.15;6.50;;;22.50;34.70;;;;;;5025114;28;20021;-43
2022/01/11 04:11:59;;;;;;;8.77;7.50;;;22.50;34.70;;;;;;5025497;28;20029;-43
2022/01/11 04:14:25;;;;;;;8.05;6.55;;;22.50;34.70;;;;;;5025027;28;20029;-43
2022/01/11 04:16:53;;;;;;;9.10;7.57;;;22.40;35.20;;;;;;5024773;28;20097;-44
2022/01/11 04:19:20;;;;;;;10.63;8.05;;;22.50;34.70;;;;;;5015546;28;20029;-44
2022/01/11 04:21:47;;;;;;;7.95;6.53;;;22.50;34.70;;;;;;5005343;28;20784;-43
2022/01/11 04:24:13;;;;;;;8.25;7.10;;;22.50;34.70;;;;;;5004775;28;20038;-44
2022/01/11 04:26:39;;;;;;;7.40;6.15;;;22.50;34.70;;;;;;5005787;28;20026;-44
2022/01/11 04:29:05;;;;;;;7.93;6.80;;;22.50;34.60;;;;;;5005013;28;20065;-44
2022/01/11 04:31:33;;;;;;;8.50;6.97;;;22.50;34.70;;;;;;5003117;28;20037;-43
2022/01/11 04:33:59;;;;;;;7.88;6.72;;;22.40;34.50;;;;;;5011285;28;20112;-51
2022/01/11 04:36:25;;;;;;;8.75;7.28;;;22.40;34.60;;;;;;5024510;28;20180;-43
2022/01/11 04:38:51;;;;;;;7.90;6.32;;;22.40;34.50;;;;;;5024609;28;20547;-44
2022/01/11 04:41:17;;;;;;;8.57;6.90;;;22.40;34.60;;;;;;5024726;28;20083;-43
2022/01/11 04:43:43;;;;;;;8.85;7.28;;;22.40;34.50;;;;;;5020756;28;20057;-43
2022/01/11 04:46:08;;;;;;;8.07;6.88;;;22.40;34.50;;;;;;5004894;28;20554;-44
2022/01/11 04:48:34;;;;;;;8.98;7.35;;;22.40;34.60;;;;;;5005100;28;20029;-43
2022/01/11 04:51:02;;;;;;;8.10;6.43;;;22.40;34.50;;;;;;5004013;28;20041;-44
2022/01/11 04:53:28;;;;;;;7.85;6.57;;;22.30;34.50;;;;;;5005002;28;20038;-43
2022/01/11 04:55:55;;;;;;;8.52;6.68;;;22.40;34.60;;;;;;5005243;28;20030;-43
2022/01/11 04:58:21;;;;;;;8.77;6.82;;;22.40;34.50;;;;;;5004876;28;20069;-43
2022/01/11 05:00:48;;;;;;;7.93;6.47;;;22.40;34.60;;;;;;5008006;28;20084;-44
2022/01/11 05:03:13;;;;;;;8.05;6.63;;;22.30;34.50;;;;;;5023328;28;20037;-43
2022/01/11 05:05:39;;;;;;;8.25;6.47;;;22.40;34.60;;;;;;5021554;28;20029;-43
2022/01/11 05:08:05;;;;;;;8.07;6.47;;;22.30;35.10;;;;;;5024124;28;20045;-43
2022/01/11 05:10:32;;;;;;;8.50;6.90;;;22.30;34.50;;;;;;5024231;28;20436;-44
2022/01/11 05:12:58;;;;;;;8.50;6.80;;;22.30;35.10;;;;;;5022956;28;20117;-43
2022/01/11 05:15:25;;;;;;;7.63;6.07;;;22.30;35.10;;;;;;5023016;28;20048;-44
2022/01/11 05:17:52;;;;;;;9.20;6.38;;;22.30;34.40;;;;;;5023594;28;20048;-44
2022/01/11 05:20:19;;;;;;;7.60;6.30;;;22.30;34.40;;;;;;5023635;28;20068;-43
2022/01/11 05:22:45;;;;;;;8.65;6.70;;;22.30;34.40;;;;;;5023353;28;20486;-44
2022/01/11 05:25:14;;;;;;;8.25;6.82;;;22.30;34.60;;;;;;5022500;28;20022;-43
2022/01/11 05:27:41;;;;;;;8.82;6.88;;;22.30;34.80;;;;;;5023170;28;20025;-44
2022/01/11 05:30:08;;;;;;;9.50;7.97;;;22.30;35.00;;;;;;5021475;28;20022;-43
2022/01/11 05:32:35;;;;;;;10.60;8.13;;;22.30;35.20;;;;;;5019407;28;20536;-47
2022/01/11 05:35:06;;;;;;;9.50;7.18;;;22.30;35.10;;;;;;5004092;28;20069;-45
2022/01/11 05:37:32;;;;;;;8.98;7.55;;;22.30;35.40;;;;;;5006319;28;20037;-45
2022/01/11 05:39:58;;;;;;;9.40;7.63;;;22.30;35.50;;;;;;5007951;28;20058;-45
2022/01/11 05:42:26;;;;;;;9.98;6.32;;;22.30;35.50;;;;;;5006842;28;20084;-45
2022/01/11 05:44:52;;;;;;;8.38;6.45;;;22.30;35.40;;;;;;5007286;28;20049;-45
2022/01/11 05:47:17;;;;;;;9.68;6.63;;;22.40;35.30;;;;;;5007392;28;20057;-45
2022/01/11 05:49:43;;;;;;;10.25;7.82;;;22.40;35.20;;;;;;5018298;28;20044;-46
2022/01/11 05:52:09;;;;;;;8.90;6.75;;;22.40;35.30;;;;;;5027041;28;20034;-46
2022/01/11 05:54:35;;;;;;;10.35;8.00;;;22.50;35.50;;;;;;5008056;28;20027;-45
2022/01/11 05:57:02;;;;;;;8.75;6.95;;;22.50;35.30;;;;;;5007151;28;20026;-46
2022/01/11 05:59:27;;;;;;;8.88;6.88;;;22.50;35.10;;;;;;5006660;28;20025;-46
2022/01/11 06:01:53;;;;;;;8.60;6.72;;;22.60;35.00;;;;;;5019568;28;20045;-46
2022/01/11 06:04:19;;;;;;;10.18;7.60;;;22.60;35.00;;;;;;5025945;28;20029;-47
2022/01/11 06:06:44;;;;;;;9.25;6.90;;;22.70;34.90;;;;;;5024255;28;20101;-47
2022/01/11 06:09:10;;;;;;;8.93;7.20;;;22.70;34.80;;;;;;5025419;28;20032;-48
2022/01/11 06:11:36;;;;;;;11.13;7.93;;;22.80;34.80;;;;;;5025133;28;20025;-47
2022/01/11 06:14:02;;;;;;;9.43;7.18;;;22.90;34.80;;;;;;5025881;28;20109;-47
2022/01/11 06:16:28;;;;;;;8.65;6.60;;;22.90;34.70;;;;;;5025656;28;20025;-47
2022/01/11 06:18:54;;;;;;;7.97;6.97;;;23.00;34.70;;;;;;5024812;28;20033;-48
2022/01/11 06:21:19;;;;;;;8.73;7.30;;;23.00;34.60;;;;;;5026483;28;20025;-46
2022/01/11 06:23:46;;;;;;;10.45;8.43;;;23.10;34.40;;;;;;5026460;28;20029;-46
2022/01/11 06:26:13;;;;;;;8.25;6.65;;;23.20;34.20;;;;;;5025796;28;20017;-46
2022/01/11 06:28:40;;;;;;;9.77;7.35;;;23.30;34.20;;;;;;5024518;28;20064;-48
2022/01/11 06:31:06;;;;;;;9.02;7.13;;;23.30;34.10;;;;;;5026156;28;20021;-47
2022/01/11 06:33:32;;;;;;;10.48;7.63;;;23.40;34.00;;;;;;5025520;28;20025;-48
2022/01/11 06:35:59;;;;;;;9.55;7.80;;;23.50;33.90;;;;;;5025993;28;20708;-47
2022/01/11 06:38:24;;;;;;;9.15;7.75;;;23.50;33.80;;;;;;5025299;28;20017;-48
2022/01/11 06:40:50;;;;;;;9.10;7.50;;;23.60;33.70;;;;;;5026259;28;20099;-47
2022/01/11 06:43:16;;;;;;;9.25;7.35;;;23.70;33.60;;;;;;5025917;28;20030;-48
2022/01/11 06:45:42;;;;;;;9.35;7.03;;;23.70;33.60;;;;;;5026383;28;20022;-48
2022/01/11 06:48:09;;;;;;;9.43;7.45;;;23.80;33.40;;;;;;5025733;28;20026;-48
2022/01/11 06:50:35;;;;;;;8.52;7.28;;;23.80;33.30;;;;;;5025710;28;20068;-47
2022/01/11 06:53:01;;;;;;;8.65;7.22;;;23.90;33.30;;;;;;5025468;28;20029;-50
2022/01/11 06:55:26;;;;;;;8.48;7.30;;;23.90;33.10;;;;;;5022117;28;20124;-47
2022/01/11 06:57:52;;;;;;;8.90;7.15;;;24.00;33.10;;;;;;5025385;28;20029;-47
2022/01/11 07:00:19;;;;;;;10.02;7.50;;;24.00;33.10;;;;;;5025507;28;20045;-45
2022/01/11 07:02:49;;;;;;;9.85;8.00;;;24.10;33.00;;;;;;5025572;28;20087;-44
2022/01/11 07:05:16;;;;;;;9.95;7.68;;;24.20;32.90;;;;;;5024246;28;20066;-45
2022/01/11 07:07:42;;;;;;;8.60;7.53;;;24.20;32.80;;;;;;5025206;28;20160;-45
2022/01/11 07:10:09;;;;;;;9.63;7.97;;;24.30;32.70;;;;;;5024992;28;20100;-45
2022/01/11 07:12:35;;;;;;;8.45;6.90;;;24.30;32.60;;;;;;5025374;28;20057;-45
2022/01/11 07:15:01;;;;;;;9.98;7.60;;;24.40;32.50;;;;;;5025454;28;20026;-45
2022/01/11 07:17:27;;;;;;;10.40;7.80;;;24.40;32.30;;;;;;5025511;28;20037;-45
2022/01/11 07:19:52;;;;;;;9.27;7.80;;;24.40;32.20;;;;;;5024883;28;20033;-47
2022/01/11 07:22:18;;;;;;;10.30;8.35;;;24.50;32.20;;;;;;5025364;28;20037;-47
2022/01/11 07:24:44;;;;;;;11.25;7.30;;;24.60;32.10;;;;;;5024079;28;20053;-46
2022/01/11 07:27:10;;;;;;;9.35;7.93;;;24.60;32.20;;;;;;5024865;28;20021;-47
2022/01/11 07:29:36;;;;;;;8.55;7.28;;;24.70;32.40;;;;;;5025359;28;20014;-46
2022/01/11 07:32:03;;;;;;;8.13;6.60;;;24.70;32.80;;;;;;5024390;28;20021;-46
2022/01/11 07:34:28;;;;;;;9.13;5.90;;;24.70;32.90;;;;;;5018059;28;20049;-47
2022/01/11 07:36:54;;;;;;;9.52;6.75;;;24.70;32.80;;;;;;5005114;28;20034;-47
2022/01/11 07:39:20;;;;;;;7.40;6.00;;;24.80;32.70;;;;;;5004710;28;20030;-47
2022/01/11 07:41:47;;;;;;;6.75;5.20;;;24.80;32.80;;;;;;5006062;28;20041;-47
2022/01/11 07:44:13;;;;;;;8.00;6.35;;;24.90;32.80;;;;;;5004947;28;20588;-47
2022/01/11 07:46:40;;;;;;;8.27;6.60;;;24.90;32.50;;;;;;5006074;28;20026;-46
2022/01/11 07:49:06;;;;;;;8.95;7.55;;;24.90;32.60;;;;;;5009452;28;20430;-46
2022/01/11 07:51:32;;;;;;;8.05;6.88;;;25.00;32.20;;;;;;5025810;28;20026;-47
2022/01/11 07:53:58;;;;;;;10.82;7.70;;;25.00;32.20;;;;;;5025222;28;20241;-49
2022/01/11 07:56:24;;;;;;;9.60;7.82;;;25.00;32.00;;;;;;5010736;28;20105;-47
2022/01/11 07:58:50;;;;;;;8.55;7.35;;;25.00;31.90;;;;;;5003242;28;20133;-48
2022/01/11 08:01:16;;;;;;;8.60;7.22;;;25.10;31.90;;;;;;5004808;28;20533;-48
2022/01/11 08:03:41;;;;;;;8.05;6.68;;;25.10;31.90;;;;;;5004789;28;20096;-47
2022/01/11 08:06:07;;;;;;;8.77;7.10;;;25.10;31.90;;;;;;5007869;28;20026;-46
2022/01/11 08:08:33;;;;;;;9.57;7.28;;;25.20;31.70;;;;;;5013823;28;20026;-45
2022/01/11 08:11:00;;;;;;;8.20;6.63;;;25.20;31.70;;;;;;5025209;28;20031;-47
2022/01/11 08:13:26;;;;;;;8.82;7.15;;;25.20;31.70;;;;;;5010169;28;20195;-46
2022/01/11 08:15:52;;;;;;;9.02;7.55;;;25.30;31.50;;;;;;5005680;28;20029;-47
2022/01/11 08:18:17;;;;;;;8.65;7.18;;;25.30;31.50;;;;;;5005889;28;20034;-47
2022/01/11 08:20:44;;;;;;;7.95;6.78;;;25.30;31.50;;;;;;5005606;28;20032;-47
2022/01/11 08:23:12;;;;;;;7.85;6.63;;;25.30;31.50;;;;;;5005082;28;20030;-46
2022/01/11 08:25:38;;;;;;;8.85;7.03;;;25.30;31.40;;;;;;5011636;28;20097;-46
2022/01/11 08:28:04;;;;;;;8.93;6.97;;;25.40;31.40;;;;;;5005638;28;20109;-46
2022/01/11 08:30:31;;;;;;;9.07;7.03;;;25.40;31.30;;;;;;5005408;28;20025;-47
2022/01/11 08:32:56;;;;;;;8.02;6.30;;;25.40;31.20;;;;;;5004341;28;20025;-48
2022/01/11 08:35:24;;;;;;;8.10;6.32;;;25.40;31.30;;;;;;5017635;28;20035;-47
2022/01/11 08:37:51;;;;;;;8.25;6.38;;;25.40;31.20;;;;;;5023547;28;20033;-47
2022/01/11 08:40:17;;;;;;;8.30;7.05;;;25.40;31.10;;;;;;5025415;28;20105;-47
2022/01/11 08:42:43;;;;;;;12.63;7.25;;;25.40;31.10;;;;;;5024088;28;20030;-47
2022/01/11 08:45:09;;;;;;;8.02;6.75;;;25.50;31.10;;;;;;5024741;28;20036;-48
2022/01/11 08:47:35;;;;;;;7.05;5.80;;;25.50;31.00;;;;;;5025201;28;20014;-47
2022/01/11 08:50:04;;;;;;;7.30;5.88;;;25.50;31.20;;;;;;5014989;28;20033;-47
2022/01/11 08:52:30;;;;;;;7.57;6.22;;;25.50;31.00;;;;;;5004936;28;20029;-47
2022/01/11 08:54:56;;;;;;;8.55;5.93;;;25.50;31.10;;;;;;5005038;28;20033;-49
2022/01/11 08:57:23;;;;;;;8.93;6.70;;;25.50;31.00;;;;;;5022019;28;20095;-47
2022/01/11 08:59:49;;;;;;;8.75;7.25;;;25.50;30.90;;;;;;5024958;28;20033;-47
2022/01/11 09:02:15;;;;;;;8.02;6.88;;;25.50;30.90;;;;;;5008448;28;20179;-46
2022/01/11 09:04:42;;;;;;;7.97;6.32;;;25.50;30.80;;;;;;5011290;28;20561;-46
2022/01/11 09:07:08;;;;;;;8.05;6.47;;;25.50;30.80;;;;;;5024539;28;20033;-46
2022/01/11 09:09:34;;;;;;;7.55;6.25;;;25.50;30.80;;;;;;5024406;28;20026;-47
2022/01/11 09:12:08;;;;;;;7.53;6.38;;;25.50;30.90;;;;;;5025487;28;20397;-47
2022/01/11 09:14:34;;;;;;;7.97;6.53;;;25.50;30.90;;;;;;5027893;28;20033;-48
2022/01/11 09:17:02;;;;;;;8.23;6.53;;;25.60;30.80;;;;;;5028220;28;20026;-48
2022/01/11 09:19:29;;;;;;;8.32;6.75;;;25.60;30.70;;;;;;5028104;28;20041;-46
2022/01/11 09:21:55;;;;;;;8.45;6.75;;;25.50;30.70;;;;;;5028377;28;20127;-45
2022/01/11 09:24:21;;;;;;;7.53;6.00;;;25.60;30.70;;;;;;5028164;28;20026;-46
2022/01/11 09:26:48;;;;;;;8.00;6.45;;;25.60;30.80;;;;;;5010770;28;20022;-46
2022/01/11 09:29:15;;;;;;;8.65;6.85;;;25.60;30.80;;;;;;5006842;28;20431;-47
2022/01/11 09:31:41;;;;;;;7.32;5.97;;;25.60;30.70;;;;;;5008588;28;20084;-48
2022/01/11 09:34:07;;;;;;;8.38;6.57;;;25.60;30.70;;;;;;5009856;28;20153;-48
2022/01/11 09:36:34;;;;;;;9.82;7.55;;;25.60;30.70;;;;;;5028117;28;20322;-47
2022/01/11 09:39:00;;;;;;;8.77;6.70;;;25.60;30.70;;;;;;5027819;28;20474;-46
2022/01/11 09:41:26;;;;;;;8.27;6.18;;;25.60;30.70;;;;;;5028199;28;20029;-46
2022/01/11 09:43:51;;;;;;;8.77;6.72;;;25.60;30.80;;;;;;5026462;28;20385;-47
2022/01/11 09:46:18;;;;;;;8.40;6.57;;;25.60;30.70;;;;;;5014192;28;20025;-47
2022/01/11 09:48:45;;;;;;;9.02;6.53;;;25.60;30.70;;;;;;5008173;28;20686;-47
2022/01/11 09:51:11;;;;;;;7.82;6.35;;;25.60;30.70;;;;;;5026065;28;20083;-46
2022/01/11 09:53:37;;;;;;;7.80;6.82;;;25.60;30.70;;;;;;5027133;28;20172;-48
2022/01/11 09:56:05;;;;;;;8.60;6.93;;;25.60;30.70;;;;;;5015884;28;20506;-48
2022/01/11 09:58:32;;;;;;;7.18;6.10;;;25.60;30.70;;;;;;5007463;28;20037;-48
2022/01/11 10:00:59;;;;;;;8.05;6.85;;;25.60;30.70;;;;;;5013191;28;20390;-47
2022/01/11 10:03:25;;;;;;;7.68;6.03;;;25.60;30.70;;;;;;5027134;28;20605;-45
2022/01/11 10:05:52;;;;;;;8.07;6.50;;;25.60;30.70;;;;;;5027142;28;20130;-47
2022/01/11 10:08:30;;;;;;;9.63;7.22;;;25.60;30.70;;;;;;5027188;28;20489;-48
2022/01/11 10:10:58;;;;;;;8.73;6.68;;;25.60;30.70;;;;;;5027634;28;20101;-45
2022/01/11 10:13:38;;;;;;;8.20;6.22;;;25.60;30.70;;;;;;5026742;28;20525;-48
2022/01/11 10:16:26;;;;;;;7.88;6.63;;;25.60;30.70;;;;;;5027257;28;20037;-47
2022/01/11 10:18:54;;;;;;;7.60;6.43;;;25.60;30.70;;;;;;5027485;28;20235;-46
2022/01/11 10:21:31;;;;;;;8.45;6.38;;;25.60;30.70;;;;;;5027962;28;20037;-47
2022/01/11 10:23:57;;;;;;;7.18;6.20;;;25.60;30.70;;;;;;5026679;28;20045;-47
2022/01/11 10:26:43;;;;;;;7.70;6.30;;;25.60;30.70;;;;;;5012884;28;20030;-45
2022/01/11 10:29:50;;;;;;;7.82;6.35;;;25.60;30.70;;;;;;5007491;28;20030;-46
2022/01/11 10:32:24;;;;;;;7.30;6.07;;;25.60;30.70;;;;;;4984146;28;20041;-50
2022/01/11 10:34:55;;;;;;;8.13;6.20;;;25.60;30.70;;;;;;4986009;28;20038;-47
2022/01/11 10:37:44;;;;;;;8.48;5.82;;;25.60;30.60;;;;;;4997323;28;20498;-46
2022/01/11 10:40:17;;;;;;;7.28;5.82;;;25.60;30.70;;;;;;5007235;28;20499;-49
2022/01/11 10:42:48;;;;;;;7.30;6.07;;;25.60;30.70;;;;;;5006216;28;20058;-47
2022/01/11 10:45:17;;;;;;;8.23;6.72;;;25.60;30.60;;;;;;5006987;28;20618;-46
2022/01/11 10:47:47;;;;;;;8.13;6.70;;;25.60;30.60;;;;;;5007142;28;20030;-47
2022/01/11 10:50:18;;;;;;;7.72;5.78;;;25.60;30.60;;;;;;5015589;28;20439;-48
2022/01/11 10:52:45;;;;;;;7.85;6.18;;;25.60;30.60;;;;;;5026376;28;20061;-48
2022/01/11 10:55:20;;;;;;;9.93;6.97;;;25.60;30.60;;;;;;5022017;28;20041;-48
2022/01/11 10:57:55;;;;;;;8.82;7.22;;;25.60;30.60;;;;;;5006698;28;20033;-46
2022/01/11 11:00:32;;;;;;;8.25;6.45;;;25.60;30.60;;;;;;5006761;28;20053;-47
2022/01/11 11:03:02;;;;;;;8.35;6.53;;;25.60;30.50;;;;;;5006088;28;20038;-47
2022/01/11 11:05:33;;;;;;;8.05;6.32;;;25.60;30.60;;;;;;5006712;28;20026;-46
2022/01/11 11:08:03;;;;;;;6.60;5.68;;;25.60;30.50;;;;;;5007050;28;20092;-47
2022/01/11 11:10:32;;;;;;;7.72;6.20;;;25.60;30.70;;;;;;5006674;28;20038;-47
2022/01/11 11:12:58;;;;;;;8.02;6.68;;;25.70;30.60;;;;;;5006198;28;20037;-48
2022/01/11 11:15:29;;;;;;;7.93;6.03;;;25.60;30.50;;;;;;5006530;28;20080;-46
2022/01/11 11:17:55;;;;;;;6.32;5.15;;;25.60;30.70;;;;;;5006300;28;20065;-47
2022/01/11 11:20:20;;;;;;;8.18;6.53;;;25.60;30.70;;;;;;5015822;28;20068;-45
2022/01/11 11:22:46;;;;;;;7.32;6.03;;;25.60;30.50;;;;;;5025359;28;20402;-49
2022/01/11 11:25:12;;;;;;;7.15;5.85;;;25.60;30.50;;;;;;5021651;28;20065;-47
2022/01/11 11:27:38;;;;;;;7.13;5.65;;;25.60;30.60;;;;;;5006202;28;20025;-46
2022/01/11 11:30:05;;;;;;;7.45;5.90;;;25.70;30.60;;;;;;5006276;28;20026;-48
2022/01/11 11:32:32;;;;;;;7.38;5.45;;;25.60;30.60;;;;;;5006037;28;20232;-47
2022/01/11 11:34:58;;;;;;;8.52;6.22;;;25.70;30.60;;;;;;5011645;28;20045;-47
2022/01/11 11:37:35;;;;;;;7.10;5.53;;;25.70;30.50;;;;;;5025808;28;20111;-46
2022/01/11 11:40:11;;;;;;;7.35;5.93;;;25.70;31.30;;;;;;5025292;28;20377;-47
2022/01/11 11:42:39;;;;;;;7.15;5.70;;;25.70;30.60;;;;;;5025017;28;20040;-48
2022/01/11 11:45:19;;;;;;;8.02;6.13;;;25.70;30.60;;;;;;5025900;28;20382;-47
2022/01/11 11:47:46;;;;;;;7.65;5.97;;;25.70;30.60;;;;;;5025748;28;20488;-48
2022/01/11 11:50:22;;;;;;;7.97;5.95;;;25.60;30.50;;;;;;5025214;28;20676;-44
2022/01/11 11:52:51;;;;;;;6.65;5.55;;;25.70;30.60;;;;;;5024968;28;20048;-44
2022/01/11 11:55:23;;;;;;;7.05;5.40;;;25.60;30.60;;;;;;5019623;28;20057;-44
2022/01/11 11:58:02;;;;;;;;;;;25.60;30.60;;;;;;5006369;28;20056;-45
2022/01/11 12:00:31;;;;;;;7.20;5.55;;;25.60;30.60;;;;;;5017300;28;20385;-44
2022/01/11 12:03:01;;;;;;;7.57;6.47;;;25.60;30.40;;;;;;5004988;28;20533;-48
2022/01/11 12:05:31;;;;;;;8.23;6.32;;;25.60;30.40;;;;;;5005730;28;20060;-48
2022/01/11 12:07:58;;;;;;;8.10;6.03;;;25.60;30.40;;;;;;5005499;28;20057;-47
2022/01/11 12:10:47;;;;;;;6.55;5.35;;;25.60;30.50;;;;;;5005271;28;20029;-46
2022/01/11 12:13:45;;;;;;;6.68;5.22;;;25.60;30.60;;;;;;5005555;28;20494;-46
2022/01/11 12:16:26;;;;;;;6.35;4.80;;;25.60;30.60;;;;;;5005574;28;20061;-48
2022/01/11 12:19:14;;;;;;;7.75;6.00;;;25.60;30.60;;;;;;5005077;28;20041;-46
2022/01/11 12:21:54;;;;;;;7.35;5.88;;;25.60;30.40;;;;;;5024518;28;20025;-46
2022/01/11 12:24:40;;;;;;;6.30;5.53;;;25.60;30.40;;;;;;5024890;28;20037;-47
2022/01/11 12:27:10;;;;;;;6.78;5.47;;;25.60;31.10;;;;;;5005564;28;20037;-48
2022/01/11 12:29:51;;;;;;;6.65;5.70;;;25.60;30.30;;;;;;5005639;28;20017;-47
2022/01/11 12:32:19;;;;;;;8.55;6.65;;;25.60;30.50;;;;;;5004736;28;20040;-46
2022/01/11 12:34:50;;;;;;;6.90;6.07;;;25.60;30.30;;;;;;5007874;28;20064;-48
2022/01/11 12:37:38;;;;;;;7.78;6.18;;;25.50;30.40;;;;;;5024700;28;20088;-48
2022/01/11 12:40:12;;;;;;;7.38;6.35;;;25.50;30.40;;;;;;5025058;28;20462;-47
2022/01/11 12:42:51;;;;;;;7.80;6.18;;;25.60;30.30;;;;;;5024595;28;20029;-47
2022/01/11 12:45:38;;;;;;;7.63;6.30;;;25.60;30.30;;;;;;5024827;28;20021;-47
2022/01/11 12:48:04;;;;;;;7.75;6.20;;;25.60;30.30;;;;;;5024440;28;20017;-48
2022/01/11 12:50:31;;;;;;;7.13;5.70;;;25.60;30.30;;;;;;5015374;28;20038;-46
2022/01/11 12:52:58;;;;;;;7.85;6.45;;;25.60;30.90;;;;;;5024476;28;20454;-47
2022/01/11 12:55:24;;;;;;;6.40;5.38;;;25.60;30.30;;;;;;5004498;28;20560;-47